createdAt,value
2023-05-02T00:01:05.296Z,100574.41
2023-05-02T00:03:32.979Z,100575.34
2023-05-02T00:06:00.408Z,100573.52
2023-05-02T00:08:27.477Z,100574.59
2023-05-02T00:10:54.299Z,100574.61
2023-05-02T00:13:21.074Z,100576.77
2023-05-02T00:15:47.741Z,100577.49
2023-05-02T00:18:14.802Z,100573.44
2023-05-02T00:20:42.250Z,100575.09
2023-05-02T00:23:09.233Z,100577.65
2023-05-02T00:25:36.100Z,100579.39
2023-05-02T00:28:02.724Z,100581.08
2023-05-02T00:30:29.344Z,100577.27
2023-05-02T00:32:56.130Z,100581.63
2023-05-02T00:35:22.799Z,100580.80
2023-05-02T00:37:49.432Z,100581.58
2023-05-02T00:40:16.238Z,100584.04
2023-05-02T00:42:42.852Z,100587.00
2023-05-02T00:45:09.793Z,100590.65
2023-05-02T00:47:36.511Z,100600.79
2023-05-02T00:50:05.568Z,100603.82
2023-05-02T00:52:33.031Z,100608.18
2023-05-02T00:54:59.788Z,100610.95
2023-05-02T00:57:26.820Z,100614.14
2023-05-02T00:59:53.434Z,100611.20
2023-05-02T01:02:51.318Z,100612.80
2023-05-02T01:05:31.053Z,100618.52
2023-05-02T01:08:24.101Z,100620.15
2023-05-02T01:11:21.457Z,100621.79
2023-05-02T01:13:48.072Z,100625.14
2023-05-02T01:16:14.920Z,100629.66
2023-05-02T01:18:42.108Z,100631.11
2023-05-02T01:21:10.535Z,100638.18
2023-05-02T01:24:16.800Z,100635.71
2023-05-02T01:26:50.183Z,100632.77
2023-05-02T01:29:17.113Z,100632.64
2023-05-02T01:31:46.126Z,100633.52
2023-05-02T01:34:12.761Z,100629.58
2023-05-02T01:36:46.678Z,100632.08
2023-05-02T01:39:14.683Z,100630.60
2023-05-02T01:41:41.805Z,100632.58
2023-05-02T01:44:08.563Z,100636.57
2023-05-02T01:46:36.833Z,100636.71
2023-05-02T01:49:04.326Z,100636.23
2023-05-02T01:51:33.025Z,100638.73
2023-05-02T01:54:07.388Z,100636.48
2023-05-02T01:56:36.994Z,100636.11
2023-05-02T01:59:09.116Z,100637.96
2023-05-02T02:01:36.640Z,100635.02
2023-05-02T02:04:03.697Z,100634.16
2023-05-02T02:06:31.571Z,100633.83
2023-05-02T02:08:59.207Z,100633.14
2023-05-02T02:11:37.913Z,100631.94
2023-05-02T02:14:08.689Z,100632.13
2023-05-02T02:16:38.187Z,100634.83
2023-05-02T02:19:07.424Z,100633.45
2023-05-02T02:21:34.984Z,100632.06
2023-05-02T02:24:02.066Z,100632.45
2023-05-02T02:26:28.768Z,100634.05
2023-05-02T02:28:56.298Z,100630.58
2023-05-02T02:31:25.786Z,100630.94
2023-05-02T02:33:52.590Z,100631.98
2023-05-02T02:36:25.412Z,100631.46
2023-05-02T02:38:58.103Z,100625.42
2023-05-02T02:41:31.920Z,100628.38
2023-05-02T02:44:33.953Z,100629.91
2023-05-02T02:47:12.264Z,100628.62
2023-05-02T02:49:43.268Z,100633.29
2023-05-02T02:52:24.920Z,100636.27
2023-05-02T02:54:56.755Z,100640.17
2023-05-02T02:57:52.727Z,100643.21
2023-05-02T03:00:21.479Z,100644.48
2023-05-02T03:02:48.413Z,100646.96
2023-05-02T03:05:15.214Z,100648.70
2023-05-02T03:07:41.902Z,100652.55
2023-05-02T03:10:09.305Z,100658.33
2023-05-02T03:12:36.270Z,100659.75
2023-05-02T03:15:29.231Z,100660.09
2023-05-02T03:17:56.185Z,100662.34
2023-05-02T03:20:23.654Z,100666.02
2023-05-02T03:22:50.367Z,100671.74
2023-05-02T03:25:17.308Z,100675.36
2023-05-02T03:27:45.198Z,100678.98
2023-05-02T03:30:12.342Z,100678.61
2023-05-02T03:32:39.046Z,100682.06
2023-05-02T03:35:06.828Z,100689.39
2023-05-02T03:37:35.357Z,100689.95
2023-05-02T03:40:02.616Z,100691.22
2023-05-02T03:42:29.824Z,100691.01
2023-05-02T03:44:57.824Z,100690.61
2023-05-02T03:47:26.081Z,100689.68
2023-05-02T03:49:53.266Z,100686.33
2023-05-02T03:52:19.970Z,100686.27
2023-05-02T03:54:47.176Z,100687.98
2023-05-02T03:57:14.144Z,100686.33
2023-05-02T03:59:42.919Z,100691.61
2023-05-02T04:02:12.943Z,100699.13
2023-05-02T04:04:45.267Z,100700.39
2023-05-02T04:07:18.533Z,100698.70
2023-05-02T04:09:48.850Z,100701.31
2023-05-02T04:12:16.320Z,100707.74
2023-05-02T04:14:46.408Z,100710.27
2023-05-02T04:17:15.666Z,100708.09
2023-05-02T04:19:45.817Z,100707.29
2023-05-02T04:22:13.091Z,100709.40
2023-05-02T04:24:44.614Z,100715.54
2023-05-02T04:27:13.690Z,100718.61
2023-05-02T04:29:42.257Z,100714.38
2023-05-02T04:32:10.331Z,100713.30
2023-05-02T04:34:37.229Z,100718.66
2023-05-02T04:37:04.067Z,100715.49
2023-05-02T04:39:32.009Z,100717.31
2023-05-02T04:42:05.149Z,100717.28
2023-05-02T04:44:36.683Z,100721.60
2023-05-02T04:47:04.684Z,100725.22
2023-05-02T04:49:32.581Z,100724.67
2023-05-02T04:51:59.322Z,100724.15
2023-05-02T04:54:28.415Z,100723.25
2023-05-02T04:57:00.237Z,100724.08
2023-05-02T04:59:28.340Z,100728.58
2023-05-02T05:01:58.780Z,100727.19
2023-05-02T05:04:25.856Z,100727.54
2023-05-02T05:06:52.940Z,100728.40
2023-05-02T05:09:20.761Z,100727.14
2023-05-02T05:11:47.468Z,100724.48
2023-05-02T05:14:14.953Z,100726.41
2023-05-02T05:16:44.660Z,100732.13
2023-05-02T05:19:12.007Z,100729.98
2023-05-02T05:21:39.229Z,100728.44
2023-05-02T05:24:06.973Z,100730.50
2023-05-02T05:26:33.590Z,100733.06
2023-05-02T05:29:00.273Z,100737.00
2023-05-02T05:31:31.864Z,100735.69
2023-05-02T05:34:01.350Z,100733.15
2023-05-02T05:36:28.928Z,100736.91
2023-05-02T05:38:56.612Z,100734.73
2023-05-02T05:41:24.722Z,100740.42
2023-05-02T05:43:57.002Z,100737.86
2023-05-02T05:46:25.483Z,100741.18
2023-05-02T05:48:52.319Z,100737.86
2023-05-02T05:51:19.450Z,100740.96
2023-05-02T05:53:46.379Z,100739.70
2023-05-02T05:56:13.984Z,100737.08
2023-05-02T05:58:45.854Z,100740.90
2023-05-02T06:01:14.065Z,100737.65
2023-05-02T06:03:41.135Z,100740.82
2023-05-02T06:06:08.075Z,100738.17
2023-05-02T06:08:34.828Z,100740.77
2023-05-02T06:11:01.519Z,100742.52
2023-05-02T06:13:28.192Z,100741.65
2023-05-02T06:15:55.338Z,100742.69
2023-05-02T06:18:22.398Z,100746.67
2023-05-02T06:20:49.059Z,100741.02
2023-05-02T06:23:15.727Z,100742.73
2023-05-02T06:25:42.655Z,100743.54
2023-05-02T06:28:09.662Z,100742.70
2023-05-02T06:30:36.600Z,100743.40
2023-05-02T06:33:06.567Z,100742.00
2023-05-02T06:35:33.296Z,100744.79
2023-05-02T06:37:59.933Z,100746.52
2023-05-02T06:40:26.801Z,100744.08
2023-05-02T06:42:53.497Z,100743.83
2023-05-02T06:45:20.098Z,100746.34
2023-05-02T06:47:46.792Z,100743.33
2023-05-02T06:50:13.444Z,100743.30
2023-05-02T06:52:40.158Z,100749.02
2023-05-02T06:55:07.701Z,100745.69
2023-05-02T06:57:34.298Z,100746.61
2023-05-02T07:00:01.522Z,100745.20
2023-05-02T07:02:28.719Z,100745.95
2023-05-02T07:04:55.639Z,100746.65
2023-05-02T07:07:22.394Z,100740.20
2023-05-02T07:09:49.077Z,100740.08
2023-05-02T07:12:15.693Z,100740.98
2023-05-02T07:14:42.687Z,100746.23
2023-05-02T07:17:09.847Z,100743.14
2023-05-02T07:19:37.109Z,100742.48
2023-05-02T07:22:03.808Z,100740.31
2023-05-02T07:24:30.468Z,100739.66
2023-05-02T07:26:57.159Z,100745.35
2023-05-02T07:29:23.877Z,100742.90
2023-05-02T07:31:50.774Z,100741.65
2023-05-02T07:34:17.424Z,100736.02
2023-05-02T07:36:44.019Z,100733.55
2023-05-02T07:39:10.683Z,100738.60
2023-05-02T07:41:37.538Z,100737.98
2023-05-02T07:44:04.287Z,100738.95
2023-05-02T07:46:31.510Z,100738.83
2023-05-02T07:48:58.326Z,100739.15
2023-05-02T07:51:26.390Z,100739.45
2023-05-02T07:53:54.495Z,100736.46
2023-05-02T07:56:21.878Z,100735.56
2023-05-02T07:58:48.539Z,100738.30
2023-05-02T08:01:15.175Z,100744.14
2023-05-02T08:03:41.948Z,100744.92
2023-05-02T08:06:09.856Z,100743.71
2023-05-02T08:08:37.144Z,100744.99
2023-05-02T08:11:04.109Z,100743.73
2023-05-02T08:13:30.747Z,100741.02
2023-05-02T08:16:00.592Z,100742.23
2023-05-02T08:18:27.405Z,100740.42
2023-05-02T08:20:56.144Z,100742.50
2023-05-02T08:23:23.020Z,100739.98
2023-05-02T08:25:49.743Z,100737.25
2023-05-02T08:28:16.439Z,100737.27
2023-05-02T08:30:45.313Z,100735.45
2023-05-02T08:33:11.990Z,100737.27
2023-05-02T08:35:38.913Z,100733.09
2023-05-02T08:38:05.586Z,100729.33
2023-05-02T08:40:41.584Z,100721.72
2023-05-02T08:43:11.712Z,100713.59
2023-05-02T08:45:42.895Z,100711.29
2023-05-02T08:48:11.108Z,100706.08
2023-05-02T08:50:42.629Z,100706.41
2023-05-02T08:53:09.628Z,100707.23
2023-05-02T08:55:39.727Z,100700.86
2023-05-02T08:58:07.299Z,100703.63
2023-05-02T09:00:33.926Z,100700.79
2023-05-02T09:03:28.293Z,100698.63
2023-05-02T09:06:04.449Z,100694.05
2023-05-02T09:08:31.181Z,100689.14
2023-05-02T09:10:58.041Z,100684.23
2023-05-02T09:13:35.316Z,100684.43
2023-05-02T09:16:09.666Z,100685.52
2023-05-02T09:18:37.284Z,100673.65
2023-05-02T11:14:07.331Z,100617.20
2023-05-02T11:16:53.668Z,100610.62
2023-05-02T11:19:20.708Z,100610.24
2023-05-02T11:21:47.318Z,100610.70
2023-05-02T11:24:37.692Z,100609.70
2023-05-02T11:27:29.419Z,100606.54
2023-05-02T11:30:00.386Z,100606.22
2023-05-02T11:32:45.677Z,100602.52
2023-05-02T11:35:19.798Z,100597.18
2023-05-02T11:38:13.703Z,100597.98
2023-05-02T11:40:40.544Z,100593.39
2023-05-02T11:43:15.504Z,100599.08
2023-05-02T11:45:42.947Z,100592.10
2023-05-02T11:48:15.110Z,100592.02
2023-05-02T11:50:48.668Z,100593.61
2023-05-02T11:53:18.170Z,100588.29
2023-05-02T11:55:49.752Z,100582.30
2023-05-02T11:58:17.644Z,100577.97
2023-05-02T12:00:48.038Z,100574.73
2023-05-02T12:06:19.462Z,100567.73
2023-05-02T12:08:46.926Z,100569.98
2023-05-02T12:11:15.840Z,100569.83
2023-05-02T12:13:47.307Z,100568.48
2023-05-02T12:16:14.763Z,100567.74
2023-05-02T12:18:41.814Z,100567.01
2023-05-02T12:21:08.525Z,100566.35
2023-05-02T12:23:37.464Z,100561.52
2023-05-02T12:26:22.255Z,100559.80
2023-05-02T12:28:50.869Z,100566.35
2023-05-02T12:31:17.613Z,100567.40
2023-05-02T12:33:44.278Z,100571.36
2023-05-02T12:36:11.478Z,100568.96
2023-05-02T12:38:38.114Z,100565.06
2023-05-02T12:41:04.891Z,100559.55
2023-05-02T12:43:45.993Z,100550.09
2023-05-02T12:46:12.607Z,100546.08
2023-05-02T12:48:39.239Z,100544.71
2023-05-02T12:51:06.005Z,100542.61
2023-05-02T12:53:42.789Z,100541.16
2023-05-02T12:56:10.854Z,100538.75
2023-05-02T12:58:42.787Z,100535.70
2023-05-02T13:01:09.992Z,100532.18
2023-05-02T13:03:36.887Z,100535.33
2023-05-02T13:06:03.943Z,100533.84
2023-05-02T13:08:30.788Z,100531.77
2023-05-02T13:10:57.759Z,100528.85
2023-05-02T13:13:24.365Z,100523.81
2023-05-02T13:15:50.950Z,100525.33
2023-05-02T13:18:18.213Z,100528.21
2023-05-02T13:20:45.108Z,100529.61
2023-05-02T13:23:12.116Z,100528.64
2023-05-02T13:25:38.755Z,100526.49
2023-05-02T13:28:06.433Z,100523.50
2023-05-02T13:30:33.416Z,100525.09
2023-05-02T13:33:28.423Z,100522.73
2023-05-02T13:35:55.913Z,100521.23
2023-05-02T13:38:22.697Z,100514.02
2023-05-02T13:40:49.967Z,100509.36
2023-05-02T13:43:16.898Z,100509.71
2023-05-02T13:45:43.775Z,100508.25
2023-05-02T13:48:10.694Z,100505.76
2023-05-02T13:50:39.144Z,100510.60
2023-05-02T13:53:05.808Z,100509.35
2023-05-02T13:55:32.553Z,100500.90
2023-05-02T13:57:59.236Z,100500.65
2023-05-02T14:00:28.021Z,100500.02
2023-05-02T14:02:55.735Z,100494.27
2023-05-02T14:05:22.468Z,100491.21
2023-05-02T14:07:49.083Z,100491.98
2023-05-02T14:10:15.750Z,100491.77
2023-05-02T14:12:42.370Z,100483.72
2023-05-02T14:15:09.489Z,100488.23
2023-05-02T14:17:36.151Z,100488.59
2023-05-02T14:20:03.795Z,100487.35
2023-05-02T14:22:31.082Z,100480.20
2023-05-02T14:24:57.745Z,100479.59
2023-05-02T14:32:29.111Z,100472.02
2023-05-02T14:34:55.749Z,100476.46
2023-05-02T14:37:22.353Z,100473.02
2023-05-02T14:39:54.727Z,100472.48
2023-05-02T14:42:23.392Z,100472.36
2023-05-02T14:44:50.159Z,100471.63
2023-05-02T14:47:16.943Z,100466.64
2023-05-02T14:49:43.987Z,100469.86
2023-05-02T14:52:10.747Z,100468.43
2023-05-02T14:54:37.600Z,100465.98
2023-05-02T14:57:04.446Z,100464.89
2023-05-02T14:59:31.464Z,100461.50
2023-05-02T15:01:58.389Z,100462.09
2023-05-02T15:04:27.381Z,100465.47
2023-05-02T15:06:55.587Z,100461.84
2023-05-02T15:09:23.418Z,100452.99
2023-05-02T15:11:50.052Z,100455.11
2023-05-02T15:14:16.695Z,100451.03
2023-05-02T15:16:43.372Z,100448.55
2023-05-02T15:19:10.415Z,100445.65
2023-05-02T15:21:37.528Z,100448.12
2023-05-02T15:24:04.397Z,100443.14
2023-05-02T15:26:31.035Z,100442.48
2023-05-02T15:28:57.918Z,100434.68
2023-05-02T15:31:24.752Z,100435.05
2023-05-02T15:33:51.625Z,100434.79
2023-05-02T15:36:18.360Z,100434.93
2023-05-02T15:38:44.961Z,100434.25
2023-05-02T15:41:11.693Z,100431.11
2023-05-02T15:45:23.741Z,100434.60
2023-05-02T15:47:51.217Z,100434.86
2023-05-02T15:50:17.961Z,100430.84
2023-05-02T15:52:44.730Z,100430.37
2023-05-02T15:55:13.173Z,100428.46
2023-05-02T15:57:39.795Z,100428.95
2023-05-02T16:00:07.560Z,100424.88
2023-05-02T16:02:34.307Z,100424.86
2023-05-02T16:05:01.792Z,100423.11
2023-05-02T16:07:28.360Z,100418.70
2023-05-02T16:09:54.965Z,100415.22
2023-05-02T16:12:21.664Z,100415.00
2023-05-02T16:14:48.274Z,100414.02
2023-05-02T16:17:14.979Z,100410.44
2023-05-02T16:19:41.592Z,100409.23
2023-05-02T16:22:08.774Z,100405.41
2023-05-02T16:24:35.541Z,100405.30
2023-05-02T16:27:02.169Z,100401.10
2023-05-02T16:29:28.904Z,100402.08
2023-05-02T16:31:55.697Z,100400.71
2023-05-02T16:34:23.908Z,100399.14
2023-05-02T16:41:07.169Z,100397.27
2023-05-02T16:43:34.260Z,100396.80
2023-05-02T16:46:05.135Z,100395.77
2023-05-02T16:48:32.374Z,100399.46
2023-05-02T16:51:01.651Z,100396.45
2023-05-02T16:53:30.969Z,100395.20
2023-05-02T16:55:59.388Z,100395.12
2023-05-02T16:59:03.167Z,100395.34
2023-05-02T17:01:43.745Z,100393.52
2023-05-02T17:04:10.434Z,100400.16
2023-05-02T17:06:37.132Z,100400.27
2023-05-02T17:09:04.080Z,100406.08
2023-05-02T17:11:30.686Z,100404.70
2023-05-02T17:13:57.354Z,100402.56
2023-05-02T17:16:24.158Z,100406.77
2023-05-02T17:18:50.778Z,100408.97
2023-05-02T17:21:17.801Z,100411.64
2023-05-02T17:23:44.910Z,100410.73
2023-05-02T17:26:15.646Z,100411.20
2023-05-02T17:28:43.835Z,100411.34
2023-05-02T17:31:11.017Z,100414.87
2023-05-02T17:33:37.776Z,100414.16
2023-05-02T17:36:04.989Z,100416.77
2023-05-02T17:38:32.191Z,100415.80
2023-05-02T17:40:58.794Z,100416.86
2023-05-02T17:43:25.413Z,100419.13
2023-05-02T17:45:52.131Z,100418.35
2023-05-02T17:48:19.012Z,100413.91
2023-05-02T17:50:45.780Z,100421.98
2023-05-02T17:53:12.777Z,100422.52
2023-05-02T17:55:39.602Z,100426.04
2023-05-02T17:58:06.262Z,100429.86
2023-05-02T18:00:32.900Z,100427.96
2023-05-02T18:02:59.816Z,100433.36
2023-05-02T18:05:26.819Z,100438.05
2023-05-02T18:07:53.708Z,100436.24
2023-05-02T18:10:20.656Z,100434.66
2023-05-02T18:12:47.406Z,100432.28
2023-05-02T18:15:14.062Z,100434.13
2023-05-02T18:17:40.965Z,100434.13
2023-05-02T18:20:10.188Z,100431.79
2023-05-02T18:22:37.707Z,100435.74
2023-05-02T18:25:05.783Z,100435.39
2023-05-02T18:27:33.063Z,100431.92
2023-05-02T18:29:59.806Z,100433.41
2023-05-02T18:32:26.486Z,100433.71
2023-05-02T18:34:53.212Z,100431.21
2023-05-02T18:37:19.828Z,100430.32
2023-05-02T18:39:46.732Z,100434.08
2023-05-02T18:42:14.807Z,100431.77
2023-05-02T18:44:41.678Z,100434.45
2023-05-02T18:47:08.538Z,100433.76
2023-05-02T18:49:35.495Z,100430.98
2023-05-02T18:52:03.398Z,100430.42
2023-05-02T18:54:30.667Z,100430.35
2023-05-02T18:56:57.319Z,100431.59
2023-05-02T18:59:24.009Z,100434.85
2023-05-02T19:01:50.941Z,100438.77
2023-05-02T19:04:18.608Z,100436.24
2023-05-02T19:06:45.416Z,100435.88
2023-05-02T19:09:15.721Z,100437.13
2023-05-02T19:11:42.859Z,100438.88
2023-05-02T19:14:09.639Z,100435.85
2023-05-02T19:16:38.186Z,100433.82
2023-05-02T19:19:05.269Z,100438.77
2023-05-02T19:21:31.969Z,100437.20
2023-05-02T19:23:58.739Z,100441.55
2023-05-02T19:26:25.764Z,100441.94
2023-05-02T19:28:52.632Z,100441.36
2023-05-02T19:31:21.211Z,100438.79
2023-05-02T19:33:54.874Z,100438.39
2023-05-02T19:36:22.733Z,100434.48
2023-05-02T19:38:51.233Z,100435.27
2023-05-02T19:41:18.033Z,100433.70
2023-05-02T19:43:44.676Z,100436.34
2023-05-02T19:46:11.541Z,100434.65
2023-05-02T19:48:38.304Z,100435.95
2023-05-02T19:51:05.008Z,100432.90
2023-05-02T19:53:32.526Z,100433.81
2023-05-02T19:56:00.030Z,100433.90
2023-05-02T19:58:27.057Z,100438.88
2023-05-02T20:00:53.800Z,100440.33
2023-05-02T20:03:21.237Z,100442.30
2023-05-02T20:05:49.283Z,100443.11
2023-05-02T20:08:16.554Z,100443.23
2023-05-02T20:10:46.264Z,100446.41
2023-05-02T20:13:12.896Z,100442.40
2023-05-02T20:15:39.612Z,100438.25
2023-05-02T20:18:06.385Z,100437.58
2023-05-02T20:20:33.118Z,100437.30
2023-05-02T20:22:59.967Z,100440.97
2023-05-02T20:25:26.856Z,100440.73
2023-05-02T20:27:53.872Z,100438.89
2023-05-02T20:30:20.879Z,100436.14
2023-05-02T20:32:47.488Z,100436.67
2023-05-02T20:35:14.108Z,100437.83
2023-05-02T20:37:41.242Z,100442.24
2023-05-02T20:40:10.005Z,100436.52
2023-05-02T20:42:38.560Z,100435.09
2023-05-02T20:45:07.349Z,100433.18
2023-05-02T20:47:34.252Z,100436.91
2023-05-02T20:50:01.879Z,100438.71
2023-05-02T20:52:28.977Z,100434.90
2023-05-02T20:54:56.020Z,100442.05
2023-05-02T20:57:22.904Z,100437.95
2023-05-02T20:59:49.570Z,100438.73
2023-05-02T21:02:16.229Z,100442.71
2023-05-02T21:04:42.943Z,100443.16
2023-05-02T21:07:09.626Z,100443.21
2023-05-02T21:09:36.240Z,100448.62
2023-05-02T21:12:02.904Z,100449.73
2023-05-02T21:14:29.604Z,100448.30
2023-05-02T21:16:56.372Z,100446.14
2023-05-02T21:19:22.978Z,100445.23
2023-05-02T21:21:49.753Z,100445.38
2023-05-02T21:24:16.429Z,100447.73
2023-05-02T21:26:43.170Z,100448.91
2023-05-02T21:29:11.004Z,100451.59
2023-05-02T21:31:39.629Z,100451.64
2023-05-02T21:34:06.549Z,100449.70
2023-05-02T21:36:34.176Z,100448.85
2023-05-02T21:39:00.830Z,100450.52
2023-05-02T21:41:27.496Z,100446.54
2023-05-02T21:43:54.369Z,100444.47
2023-05-02T21:46:21.263Z,100445.63
2023-05-02T21:48:48.417Z,100446.59
2023-05-02T21:51:15.134Z,100449.06
2023-05-02T21:53:41.927Z,100448.51
2023-05-02T21:56:08.823Z,100451.36
2023-05-02T21:58:35.673Z,100448.52
2023-05-02T22:01:02.503Z,100447.92
2023-05-02T22:03:31.042Z,100444.40
2023-05-02T22:06:01.018Z,100445.08
2023-05-02T22:08:27.899Z,100447.49
2023-05-02T22:10:54.549Z,100449.71
2023-05-02T22:13:21.319Z,100451.46
2023-05-02T22:15:48.338Z,100451.98
2023-05-02T22:18:16.703Z,100453.59
2023-05-02T22:20:44.224Z,100456.59
2023-05-02T22:23:11.422Z,100456.18
2023-05-02T22:25:40.265Z,100455.14
2023-05-02T22:28:07.208Z,100457.09
2023-05-02T22:30:34.494Z,100457.85
2023-05-02T22:33:01.918Z,100461.47
2023-05-02T22:35:28.942Z,100466.17
2023-05-02T22:37:58.507Z,100467.98
2023-05-02T22:40:25.184Z,100466.17
2023-05-02T22:42:51.876Z,100464.70
2023-05-02T22:45:18.665Z,100466.39
2023-05-02T22:47:45.920Z,100470.90
2023-05-02T22:50:13.114Z,100468.23
2023-05-02T22:52:39.821Z,100467.76
2023-05-02T22:55:09.441Z,100471.82
2023-05-02T22:57:37.145Z,100471.70
2023-05-02T23:00:05.670Z,100476.66
2023-05-02T23:02:32.642Z,100475.46
2023-05-02T23:04:59.389Z,100474.30
2023-05-02T23:07:26.346Z,100476.28
2023-05-02T23:09:55.941Z,100475.89
2023-05-02T23:12:22.568Z,100477.91
2023-05-02T23:14:49.211Z,100481.10
2023-05-02T23:17:15.920Z,100483.80
2023-05-02T23:19:42.762Z,100481.92
2023-05-02T23:22:09.434Z,100480.07
2023-05-02T23:24:36.274Z,100483.80
2023-05-02T23:27:03.873Z,100484.04
2023-05-02T23:29:30.401Z,100486.38
2023-05-02T23:31:57.461Z,100489.04
2023-05-02T23:34:24.486Z,100489.59
2023-05-02T23:36:51.812Z,100486.94
2023-05-02T23:39:18.517Z,100486.40
2023-05-02T23:41:45.160Z,100484.23
2023-05-02T23:44:11.789Z,100484.13
2023-05-02T23:46:38.706Z,100487.39
2023-05-02T23:49:05.436Z,100487.63
2023-05-02T23:51:32.304Z,100482.84
2023-05-02T23:53:59.046Z,100487.69
2023-05-02T23:56:26.182Z,100483.88
2023-05-02T23:58:52.787Z,100481.47
